Time;durP1;ratioP1;P1;durP2;ratioP2;P2;SDS_P1;SDS_P2;PMS_P1;PMS_P2;Temp;Humidity;BMP_temperature;BMP_pressure;BME280_temperature;BME280_humidity;BME280_pressure;Samples;Min_cycle;Max_cycle;Signal;HPM_P1;HPM_P2
2021/06/23 00:01:14;;;;;;;20.20;15.20;;;14.70;90.20;;;;;;5095647;28;20020;-75
2021/06/23 00:03:39;;;;;;;17.83;13.90;;;14.70;90.20;;;;;;5091756;28;20035;-74
2021/06/23 00:06:05;;;;;;;23.50;14.27;;;14.70;90.20;;;;;;5056742;28;20032;-75
2021/06/23 00:08:31;;;;;;;23.38;13.85;;;14.70;90.10;;;;;;5091740;28;20024;-75
2021/06/23 00:10:58;;;;;;;17.35;12.57;;;14.70;90.00;;;;;;5084121;28;20024;-74
2021/06/23 00:13:26;;;;;;;21.27;12.45;;;14.70;90.10;;;;;;5092468;28;20067;-75
2021/06/23 00:15:52;;;;;;;21.87;11.90;;;14.60;89.70;;;;;;5093932;28;20020;-74
2021/06/23 00:18:18;;;;;;;17.17;11.10;;;14.60;89.80;;;;;;5077546;28;20036;-75
2021/06/23 00:20:43;;;;;;;14.88;11.13;;;14.50;89.90;;;;;;5086774;28;20098;-74
2021/06/23 00:23:09;;;;;;;20.08;12.15;;;14.50;89.90;;;;;;5075112;28;20039;-74
2021/06/23 00:25:34;;;;;;;18.20;11.75;;;14.50;90.00;;;;;;5074030;28;20028;-74
2021/06/23 00:28:00;;;;;;;16.38;10.27;;;14.50;90.10;;;;;;5088866;28;20024;-74
2021/06/23 00:30:26;;;;;;;18.50;10.73;;;14.50;90.10;;;;;;5095347;28;20048;-74
2021/06/23 00:32:53;;;;;;;16.42;10.57;;;14.40;90.00;;;;;;5078730;28;20497;-74
2021/06/23 00:35:19;;;;;;;27.30;12.10;;;14.40;90.10;;;;;;5075015;28;20025;-74
2021/06/23 00:37:45;;;;;;;22.35;11.73;;;14.40;90.00;;;;;;5085828;28;20511;-74
2021/06/23 00:40:11;;;;;;;20.13;11.43;;;14.30;90.00;;;;;;5078697;28;20039;-74
2021/06/23 00:42:40;;;;;;;20.45;11.50;;;14.30;90.00;;;;;;5081554;28;20127;-74
2021/06/23 00:45:08;;;;;;;18.98;11.48;;;14.30;90.00;;;;;;5094038;28;20027;-74
2021/06/23 00:47:34;;;;;;;22.02;10.73;;;14.30;89.70;;;;;;5089671;28;20426;-75
2021/06/23 00:50:06;;;;;;;18.15;10.73;;;14.20;89.90;;;;;;5093825;28;20036;-74
2021/06/23 00:52:33;;;;;;;18.00;10.93;;;14.20;90.00;;;;;;5082494;28;20040;-74
2021/06/23 00:54:59;;;;;;;22.75;11.73;;;14.20;90.10;;;;;;5074738;28;20035;-74
2021/06/23 00:57:25;;;;;;;19.50;11.43;;;14.30;90.20;;;;;;5081153;28;20082;-75
2021/06/23 00:59:54;;;;;;;19.67;10.73;;;14.30;90.30;;;;;;5074456;28;20117;-74
2021/06/23 01:02:20;;;;;;;15.95;10.65;;;14.30;90.30;;;;;;5080730;28;20033;-74
2021/06/23 01:04:48;;;;;;;19.90;11.15;;;14.30;90.50;;;;;;5073149;28;20116;-74
2021/06/23 01:07:15;;;;;;;21.92;10.10;;;14.20;90.40;;;;;;5080124;28;20020;-74
2021/06/23 01:09:41;;;;;;;23.20;11.20;;;14.20;90.20;;;;;;5094386;28;20024;-74
2021/06/23 01:12:18;;;;;;;17.98;10.40;;;14.20;90.10;;;;;;5083331;28;20036;-74
2021/06/23 01:14:44;;;;;;;19.80;11.40;;;14.20;90.10;;;;;;5073686;28;20024;-74
2021/06/23 01:17:11;;;;;;;17.95;10.60;;;14.10;90.10;;;;;;5073602;28;20112;-74
2021/06/23 01:19:41;;;;;;;21.80;10.35;;;14.10;90.20;;;;;;5081933;28;20104;-74
2021/06/23 01:22:07;;;;;;;17.35;10.55;;;14.10;90.20;;;;;;5081007;28;20789;-74
2021/06/23 01:24:33;;;;;;;20.52;10.38;;;14.10;90.30;;;;;;5094181;28;20048;-75
2021/06/23 01:26:58;;;;;;;23.75;12.15;;;14.10;90.30;;;;;;5073819;28;20166;-75
2021/06/23 01:29:24;;;;;;;23.60;10.73;;;14.10;90.20;;;;;;5056044;28;20124;-74
2021/06/23 01:31:50;;;;;;;19.83;10.48;;;14.10;90.20;;;;;;5090579;28;20115;-74
2021/06/23 01:34:16;;;;;;;17.80;9.90;;;14.00;90.10;;;;;;5072029;28;20029;-75
2021/06/23 01:36:41;;;;;;;21.88;10.20;;;14.10;90.10;;;;;;5083340;28;20036;-74
2021/06/23 01:39:07;;;;;;;23.65;10.40;;;14.00;90.10;;;;;;5074763;28;20093;-75
2021/06/23 01:41:33;;;;;;;23.52;10.60;;;14.10;89.80;;;;;;5071926;28;20055;-74
2021/06/23 01:44:00;;;;;;;16.92;11.30;;;14.00;89.60;;;;;;5087142;28;20019;-74
2021/06/23 01:46:26;;;;;;;21.25;10.13;;;14.00;90.20;;;;;;5084313;28;20116;-74
2021/06/23 01:48:51;;;;;;;20.80;10.85;;;14.00;89.90;;;;;;5074495;28;20108;-74
2021/06/23 01:51:17;;;;;;;17.80;10.13;;;14.00;89.50;;;;;;5073014;28;20393;-74
2021/06/23 01:53:42;;;;;;;18.65;10.35;;;14.00;89.50;;;;;;5074362;28;20036;-74
2021/06/23 01:56:08;;;;;;;15.27;10.15;;;14.00;89.70;;;;;;5076828;28;20028;-74
2021/06/23 01:58:39;;;;;;;17.83;10.15;;;14.00;89.90;;;;;;5079898;28;20028;-75
2021/06/23 02:01:08;;;;;;;20.55;10.30;;;14.00;89.80;;;;;;5077813;28;20043;-74
2021/06/23 02:03:47;;;;;;;17.92;10.18;;;14.00;89.90;;;;;;5084149;28;20396;-74
2021/06/23 02:06:55;;;;;;;20.67;9.65;;;14.10;90.10;;;;;;5078732;28;20085;-74
2021/06/23 02:09:38;;;;;;;22.40;10.63;;;14.10;89.90;;;;;;5073046;28;20028;-75
2021/06/23 02:12:25;;;;;;;16.77;10.20;;;14.10;89.70;;;;;;5085113;28;20039;-74
2021/06/23 02:14:53;;;;;;;18.75;10.45;;;14.10;89.50;;;;;;5093535;28;20087;-74
2021/06/23 02:17:22;;;;;;;22.52;10.35;;;14.10;89.40;;;;;;5089196;28;20052;-74
2021/06/23 02:19:50;;;;;;;19.17;10.50;;;14.10;89.60;;;;;;5077581;28;20024;-74
2021/06/23 02:22:19;;;;;;;16.45;10.40;;;14.10;89.60;;;;;;5090558;28;20061;-74
2021/06/23 02:24:46;;;;;;;18.85;10.65;;;14.10;89.70;;;;;;5093327;28;20020;-75
2021/06/23 02:27:13;;;;;;;18.20;11.73;;;14.20;89.70;;;;;;5079268;28;20028;-74
2021/06/23 02:29:40;;;;;;;25.42;10.98;;;14.10;89.50;;;;;;5071962;28;20388;-74
2021/06/23 02:32:10;;;;;;;20.52;10.57;;;14.10;90.00;;;;;;5072018;28;20436;-74
2021/06/23 02:34:36;;;;;;;21.42;11.18;;;14.10;89.70;;;;;;5073109;28;20047;-74
2021/06/23 02:37:02;;;;;;;21.50;11.32;;;14.10;89.60;;;;;;5072882;28;20037;-74
2021/06/23 02:39:28;;;;;;;20.42;11.52;;;14.00;89.40;;;;;;5072196;28;20174;-74
2021/06/23 02:41:54;;;;;;;18.15;10.73;;;14.00;89.30;;;;;;5071470;28;20135;-74
2021/06/23 02:44:20;;;;;;;17.02;11.27;;;14.00;89.40;;;;;;5076298;28;20034;-74
2021/06/23 02:46:46;;;;;;;17.67;10.45;;;14.00;89.50;;;;;;5080596;28;20074;-74
2021/06/23 02:49:12;;;;;;;19.50;11.60;;;14.00;89.50;;;;;;5079514;28;20040;-74
2021/06/23 02:51:40;;;;;;;18.58;11.07;;;14.00;89.40;;;;;;5081588;28;20044;-74
2021/06/23 02:54:07;;;;;;;19.73;10.18;;;14.00;89.30;;;;;;5086959;28;20023;-74
2021/06/23 02:56:34;;;;;;;18.85;10.85;;;14.00;89.30;;;;;;5077918;28;20071;-74
2021/06/23 02:59:00;;;;;;;19.95;11.60;;;13.90;89.40;;;;;;5086561;28;20086;-74
2021/06/23 03:01:26;;;;;;;18.10;10.73;;;14.00;89.30;;;;;;5072380;28;20107;-74
2021/06/23 03:03:52;;;;;;;17.70;10.40;;;14.00;89.10;;;;;;5080291;28;20482;-74
2021/06/23 03:06:17;;;;;;;13.93;9.98;;;14.00;89.30;;;;;;5092313;28;20104;-74
2021/06/23 03:08:43;;;;;;;18.27;10.48;;;13.90;89.30;;;;;;5092390;28;20460;-74
2021/06/23 03:11:09;;;;;;;18.98;10.95;;;14.00;89.50;;;;;;5092871;28;20039;-75
2021/06/23 03:13:35;;;;;;;16.00;10.23;;;14.00;89.20;;;;;;5078755;28;20120;-74
2021/06/23 03:16:01;;;;;;;24.10;10.90;;;14.00;89.00;;;;;;5072039;28;20029;-74
2021/06/23 03:18:29;;;;;;;16.27;11.18;;;13.90;89.10;;;;;;5086328;28;20027;-74
2021/06/23 03:20:55;;;;;;;23.42;12.13;;;13.90;88.90;;;;;;5074063;28;20033;-74
2021/06/23 03:23:21;;;;;;;20.98;12.02;;;13.80;89.00;;;;;;5092565;28;20127;-74
2021/06/23 03:25:46;;;;;;;24.75;12.23;;;13.80;89.30;;;;;;5076791;28;20146;-74
2021/06/23 03:28:12;;;;;;;23.25;11.85;;;13.80;89.60;;;;;;5090568;28;20036;-74
2021/06/23 03:30:38;;;;;;;24.83;12.90;;;13.80;89.90;;;;;;5076457;28;20036;-74
2021/06/23 03:33:04;;;;;;;28.88;13.65;;;13.70;89.60;;;;;;5072440;28;20025;-74
2021/06/23 03:35:30;;;;;;;21.42;12.07;;;13.70;89.80;;;;;;5083951;28;20469;-75
2021/06/23 03:37:56;;;;;;;23.77;12.43;;;13.70;89.90;;;;;;5089899;28;20115;-74
2021/06/23 03:40:24;;;;;;;25.98;12.77;;;13.70;90.00;;;;;;5079421;28;20044;-74
2021/06/23 03:42:49;;;;;;;21.95;13.45;;;13.70;90.00;;;;;;5072057;28;20048;-74
2021/06/23 03:45:16;;;;;;;18.58;12.50;;;13.70;90.10;;;;;;5082955;28;20032;-74
2021/06/23 03:47:43;;;;;;;19.23;12.43;;;13.70;90.10;;;;;;5078056;28;20139;-74
2021/06/23 03:50:10;;;;;;;20.25;11.57;;;13.70;90.00;;;;;;5074869;28;20025;-74
2021/06/23 03:52:36;;;;;;;23.95;13.25;;;13.70;90.00;;;;;;5075948;28;20029;-74
2021/06/23 03:55:04;;;;;;;21.85;12.73;;;13.70;90.10;;;;;;5081268;28;20031;-74
2021/06/23 03:57:30;;;;;;;19.67;11.57;;;13.70;90.20;;;;;;5076177;28;20028;-74
2021/06/23 03:59:55;;;;;;;21.65;11.23;;;13.80;90.10;;;;;;5074594;28;20036;-74
2021/06/23 04:02:21;;;;;;;19.52;11.70;;;13.80;90.10;;;;;;5074363;28;20028;-74
2021/06/23 04:04:47;;;;;;;23.10;11.60;;;13.80;90.20;;;;;;5091664;28;20528;-74
2021/06/23 04:07:13;;;;;;;20.98;11.82;;;13.80;90.20;;;;;;5086644;28;20087;-75
2021/06/23 04:09:39;;;;;;;18.45;10.73;;;13.80;90.10;;;;;;5084138;28;20029;-74
2021/06/23 04:12:06;;;;;;;15.25;10.82;;;13.80;90.10;;;;;;5081657;28;20553;-75
2021/06/23 04:14:31;;;;;;;19.17;10.98;;;13.90;90.10;;;;;;5083294;28;20389;-74
2021/06/23 04:16:57;;;;;;;20.38;11.60;;;13.90;90.00;;;;;;5081904;28;20024;-74
2021/06/23 04:19:24;;;;;;;21.83;11.45;;;13.90;89.70;;;;;;5080805;28;20542;-74
2021/06/23 04:21:49;;;;;;;29.10;11.65;;;13.90;89.60;;;;;;5081514;28;20476;-74
2021/06/23 04:24:15;;;;;;;24.05;10.98;;;13.80;89.40;;;;;;5085030;28;20055;-74
2021/06/23 04:26:42;;;;;;;21.08;11.50;;;13.80;89.70;;;;;;5083102;28;20478;-74
2021/06/23 04:29:07;;;;;;;18.98;9.82;;;13.80;89.90;;;;;;5085627;28;20020;-75
2021/06/23 04:31:33;;;;;;;25.77;12.18;;;13.90;89.90;;;;;;5082419;28;20389;-74
2021/06/23 04:33:59;;;;;;;18.15;9.93;;;13.90;89.70;;;;;;5086437;28;20023;-75
2021/06/23 04:36:24;;;;;;;19.27;11.27;;;13.90;89.70;;;;;;5064404;28;20115;-75
2021/06/23 04:38:50;;;;;;;17.70;9.98;;;13.90;89.70;;;;;;5082087;28;20027;-74
2021/06/23 04:41:16;;;;;;;20.13;10.65;;;13.90;89.60;;;;;;5081601;28;20037;-74
2021/06/23 04:43:42;;;;;;;25.48;12.23;;;13.90;89.70;;;;;;5082900;28;20016;-75
2021/06/23 04:46:07;;;;;;;18.55;11.45;;;13.90;89.90;;;;;;5085704;28;20151;-75
2021/06/23 04:48:33;;;;;;;17.50;10.13;;;13.90;90.00;;;;;;5084360;28;20103;-74
2021/06/23 04:51:00;;;;;;;15.60;10.43;;;14.00;89.90;;;;;;5083668;28;20128;-74
2021/06/23 04:53:26;;;;;;;21.05;10.55;;;14.00;89.60;;;;;;5077839;28;20036;-74
2021/06/23 04:55:53;;;;;;;21.20;11.38;;;14.00;89.70;;;;;;5085173;28;20136;-74
2021/06/23 04:58:20;;;;;;;25.70;11.50;;;14.00;89.60;;;;;;5084377;28;20108;-75
2021/06/23 05:00:45;;;;;;;24.90;11.10;;;14.00;90.10;;;;;;5085391;28;20028;-74
2021/06/23 05:03:11;;;;;;;25.20;12.15;;;14.00;89.30;;;;;;5078772;28;20038;-74
2021/06/23 05:05:38;;;;;;;21.38;11.30;;;14.10;89.10;;;;;;5086207;28;20128;-74
2021/06/23 05:08:05;;;;;;;17.30;11.20;;;14.00;89.20;;;;;;5080846;28;20016;-74
2021/06/23 05:10:30;;;;;;;22.67;12.32;;;14.00;89.20;;;;;;5082336;28;20021;-75
2021/06/23 05:12:56;;;;;;;20.77;10.07;;;14.00;89.50;;;;;;5077817;28;20035;-74
2021/06/23 05:15:21;;;;;;;19.85;11.43;;;14.00;89.70;;;;;;5080153;28;20032;-74
2021/06/23 05:17:47;;;;;;;20.98;12.30;;;14.00;89.80;;;;;;5081264;28;20028;-74
2021/06/23 05:20:14;;;;;;;18.13;10.88;;;14.00;90.00;;;;;;5077021;28;20725;-74
2021/06/23 05:22:40;;;;;;;19.30;11.68;;;14.10;90.00;;;;;;5081460;28;20482;-74
2021/06/23 05:25:06;;;;;;;20.10;11.82;;;14.10;89.80;;;;;;5074034;28;20024;-74
2021/06/23 05:27:32;;;;;;;22.73;10.52;;;14.20;89.70;;;;;;5076500;28;20728;-74
2021/06/23 05:29:57;;;;;;;19.27;11.38;;;14.20;89.70;;;;;;5075043;28;20081;-74
2021/06/23 05:32:23;;;;;;;19.27;10.73;;;14.20;89.60;;;;;;5087658;28;20153;-74
2021/06/23 05:34:48;;;;;;;25.55;11.35;;;14.20;89.40;;;;;;5069037;28;20489;-74
2021/06/23 05:37:14;;;;;;;20.98;11.57;;;14.20;89.60;;;;;;5092856;28;20032;-74
2021/06/23 05:39:40;;;;;;;17.30;10.60;;;14.20;89.70;;;;;;5082653;28;20493;-74
2021/06/23 05:42:06;;;;;;;16.90;10.80;;;14.20;89.50;;;;;;5075239;28;20401;-74
2021/06/23 05:44:31;;;;;;;19.38;11.38;;;14.20;89.40;;;;;;5086986;28;20028;-74
2021/06/23 05:46:57;;;;;;;27.85;12.00;;;14.20;89.70;;;;;;5093247;28;20373;-74
2021/06/23 05:49:23;;;;;;;20.67;12.43;;;14.20;89.70;;;;;;5093725;28;20036;-74
2021/06/23 05:51:48;;;;;;;22.67;13.50;;;14.20;89.80;;;;;;5093051;28;20024;-74
2021/06/23 05:54:14;;;;;;;23.23;11.40;;;14.20;89.60;;;;;;5072202;28;20067;-74
2021/06/23 05:56:40;;;;;;;24.58;11.63;;;14.20;89.70;;;;;;5080475;28;20151;-74
2021/06/23 05:59:05;;;;;;;22.65;13.27;;;14.20;90.00;;;;;;5074729;28;20037;-74
2021/06/23 06:01:31;;;;;;;22.17;10.68;;;14.20;90.10;;;;;;5075766;28;20028;-74
2021/06/23 06:03:57;;;;;;;19.38;11.70;;;14.30;90.20;;;;;;5076964;28;20484;-74
2021/06/23 06:06:22;;;;;;;26.92;12.25;;;14.30;90.10;;;;;;5072331;28;20055;-74
2021/06/23 06:08:49;;;;;;;15.80;10.50;;;14.30;90.10;;;;;;5075804;28;20388;-74
2021/06/23 06:11:14;;;;;;;16.90;10.52;;;14.30;90.10;;;;;;5093556;28;20032;-74
2021/06/23 06:13:40;;;;;;;18.13;10.60;;;14.40;90.10;;;;;;5091309;28;20040;-74
2021/06/23 06:16:06;;;;;;;28.10;12.25;;;14.40;90.10;;;;;;5074121;28;20041;-74
2021/06/23 06:18:31;;;;;;;19.00;10.73;;;14.40;90.10;;;;;;5076426;28;20039;-74
2021/06/23 06:20:58;;;;;;;22.42;11.50;;;14.40;90.00;;;;;;5073245;28;20531;-74
2021/06/23 06:23:25;;;;;;;20.13;11.15;;;14.50;89.90;;;;;;5073066;28;20033;-74
2021/06/23 06:25:52;;;;;;;22.02;12.10;;;14.50;89.70;;;;;;5089741;28;20093;-74
2021/06/23 06:28:19;;;;;;;18.48;10.80;;;14.50;89.70;;;;;;5091601;28;20028;-74
2021/06/23 06:30:45;;;;;;;20.33;12.10;;;14.60;89.70;;;;;;5093271;28;20028;-74
2021/06/23 06:33:11;;;;;;;20.45;10.63;;;14.60;89.60;;;;;;5078048;28;20111;-74
2021/06/23 06:35:36;;;;;;;21.85;10.88;;;14.60;89.20;;;;;;5073241;28;20055;-74
2021/06/23 06:38:02;;;;;;;18.27;11.85;;;14.60;88.70;;;;;;5073547;28;20039;-74
2021/06/23 06:40:28;;;;;;;19.75;10.40;;;14.60;88.70;;;;;;5070795;28;20115;-74
2021/06/23 06:42:54;;;;;;;16.15;10.13;;;14.60;88.90;;;;;;5070697;28;20037;-74
2021/06/23 06:45:19;;;;;;;21.52;10.77;;;14.60;88.80;;;;;;5071575;28;20033;-74
2021/06/23 06:47:46;;;;;;;19.73;10.35;;;14.60;88.70;;;;;;5072659;28;20031;-74
2021/06/23 06:50:12;;;;;;;20.95;9.88;;;14.70;88.80;;;;;;5080838;28;20485;-74
2021/06/23 06:52:38;;;;;;;20.42;9.82;;;14.60;88.60;;;;;;5090585;28;20043;-74
2021/06/23 06:55:06;;;;;;;20.05;10.63;;;14.70;88.80;;;;;;5078950;28;20032;-74
2021/06/23 06:57:32;;;;;;;16.60;9.00;;;14.70;89.00;;;;;;5091103;28;20029;-75
2021/06/23 06:59:59;;;;;;;14.30;8.90;;;14.70;88.80;;;;;;5072127;28;20024;-75
2021/06/23 07:02:25;;;;;;;16.08;10.13;;;14.70;88.40;;;;;;5073661;28;20039;-74
2021/06/23 07:04:50;;;;;;;17.83;9.63;;;14.70;88.50;;;;;;5074818;28;20017;-74
2021/06/23 07:07:16;;;;;;;20.98;9.10;;;14.80;88.70;;;;;;5077645;28;20020;-74
2021/06/23 07:09:42;;;;;;;21.05;9.73;;;14.80;88.30;;;;;;5075255;28;20393;-74
2021/06/23 07:12:08;;;;;;;19.02;8.50;;;14.80;87.60;;;;;;5072166;28;20044;-75
2021/06/23 07:14:35;;;;;;;20.83;8.57;;;14.70;87.60;;;;;;5073272;28;20028;-75
2021/06/23 07:17:00;;;;;;;16.98;9.25;;;14.80;87.70;;;;;;5083617;28;20025;-75
2021/06/23 07:19:26;;;;;;;21.58;8.30;;;14.70;87.80;;;;;;5072507;28;20025;-74
2021/06/23 07:21:52;;;;;;;18.88;9.05;;;14.70;87.00;;;;;;5072333;28;20032;-74
2021/06/23 07:24:19;;;;;;;20.30;8.75;;;14.70;87.00;;;;;;5079270;28;20501;-74
2021/06/23 07:26:48;;;;;;;18.83;8.60;;;14.70;86.80;;;;;;5074499;28;20020;-75
2021/06/23 07:29:15;;;;;;;12.90;8.10;;;14.70;86.80;;;;;;5076223;28;20020;-75
2021/06/23 07:31:47;;;;;;;20.77;9.45;;;14.70;87.30;;;;;;5076525;28;20028;-75
2021/06/23 07:36:47;;;;;;;16.20;8.98;;;14.80;88.00;;;;;;5076019;28;20024;-75
2021/06/23 07:39:16;;;;;;;19.85;9.60;;;14.90;88.30;;;;;;5092001;28;20358;-75
2021/06/23 07:41:45;;;;;;;22.17;9.63;;;15.00;89.10;;;;;;5079669;28;20043;-75
2021/06/23 07:44:12;;;;;;;20.08;8.90;;;15.00;88.30;;;;;;5076638;28;20032;-76
2021/06/23 07:47:00;;;;;;;19.73;8.57;;;15.10;88.10;;;;;;5074150;28;20537;-76
2021/06/23 07:49:28;;;;;;;14.90;7.82;;;15.10;87.90;;;;;;5074644;28;20040;-75
2021/06/23 07:54:53;;;;;;;19.67;8.43;;;15.20;87.40;;;;;;5082481;28;20036;-76
2021/06/23 08:10:41;;;;;;;17.35;6.85;;;15.30;86.10;;;;;;5076888;28;20056;-75
2021/06/23 08:13:08;;;;;;;22.92;7.53;;;15.30;84.80;;;;;;5086785;28;20028;-75
2021/06/23 08:15:41;;;;;;;16.85;6.57;;;15.20;85.10;;;;;;5080379;28;20477;-75
2021/06/23 08:18:07;;;;;;;16.77;6.53;;;15.30;84.50;;;;;;5089857;28;20028;-75
2021/06/23 08:20:34;;;;;;;17.15;7.30;;;15.30;84.70;;;;;;5078874;28;20028;-75
2021/06/23 08:23:00;;;;;;;18.35;6.50;;;15.30;85.30;;;;;;5088292;28;20028;-75
2021/06/23 08:25:26;;;;;;;13.55;5.78;;;15.30;85.50;;;;;;5094384;28;20115;-75
2021/06/23 08:27:52;;;;;;;18.05;5.95;;;15.30;84.40;;;;;;5083061;28;20098;-73
2021/06/23 08:30:19;;;;;;;15.15;6.40;;;15.30;83.90;;;;;;5075259;28;20032;-75
2021/06/23 08:32:45;;;;;;;16.40;6.57;;;15.30;83.80;;;;;;5087774;28;20027;-75
2021/06/23 08:35:12;;;;;;;17.98;5.93;;;15.30;84.20;;;;;;5091071;28;20040;-75
2021/06/23 08:37:39;;;;;;;16.95;5.97;;;15.30;84.40;;;;;;5072322;28;20036;-75
2021/06/23 08:40:07;;;;;;;16.80;6.55;;;15.30;84.20;;;;;;5095311;28;20465;-75
2021/06/23 08:42:32;;;;;;;22.70;5.68;;;15.30;83.60;;;;;;5078785;28;20053;-75
2021/06/23 08:44:58;;;;;;;19.50;5.85;;;15.30;83.20;;;;;;5086621;28;20029;-75
2021/06/23 08:47:24;;;;;;;10.27;5.47;;;15.40;82.80;;;;;;5084573;28;20021;-75
2021/06/23 08:49:51;;;;;;;14.15;5.32;;;15.40;83.20;;;;;;5089577;28;20032;-75
2021/06/23 08:52:17;;;;;;;14.63;5.57;;;15.50;83.80;;;;;;5073172;28;20064;-75
2021/06/23 08:54:43;;;;;;;9.93;4.63;;;15.60;83.10;;;;;;5084326;28;20032;-75
2021/06/23 08:57:10;;;;;;;14.68;4.10;;;15.70;83.10;;;;;;5088914;28;20104;-76
2021/06/23 08:59:40;;;;;;;14.23;4.30;;;15.80;83.10;;;;;;5075723;28;20502;-76
2021/06/23 09:02:11;;;;;;;9.60;4.53;;;16.00;82.30;;;;;;5074761;28;20036;-75
2021/06/23 09:04:57;;;;;;;15.25;4.57;;;16.10;81.60;;;;;;5083852;28;20056;-76
2021/06/23 09:07:36;;;;;;;16.15;4.65;;;16.30;81.60;;;;;;5075918;28;20020;-76
2021/06/23 09:10:05;;;;;;;14.60;4.18;;;16.40;80.70;;;;;;5094741;28;20024;-76
2021/06/23 09:12:31;;;;;;;11.73;4.50;;;16.40;80.90;;;;;;5085597;28;20032;-76
2021/06/23 09:14:58;;;;;;;11.93;4.57;;;16.60;80.70;;;;;;5094541;28;20028;-75
2021/06/23 09:17:24;;;;;;;11.65;4.25;;;16.70;80.20;;;;;;5092344;28;20062;-75
2021/06/23 09:19:51;;;;;;;16.00;4.70;;;16.80;80.30;;;;;;5081651;28;20056;-75
2021/06/23 09:22:37;;;;;;;11.75;4.20;;;17.00;79.70;;;;;;5073730;28;20024;-75
2021/06/23 09:25:24;;;;;;;12.43;3.50;;;17.20;79.10;;;;;;5074139;28;20048;-76
2021/06/23 09:27:56;;;;;;;12.63;3.90;;;17.40;78.50;;;;;;5074278;28;20590;-75
2021/06/23 09:30:45;;;;;;;12.20;4.55;;;17.50;77.20;;;;;;5073903;28;20024;-76
2021/06/23 09:33:13;;;;;;;12.10;4.35;;;17.60;76.80;;;;;;5080798;28;20021;-76
2021/06/23 09:36:05;;;;;;;12.68;3.90;;;17.50;77.20;;;;;;5074184;28;20146;-76
2021/06/23 09:38:37;;;;;;;18.17;4.88;;;17.50;76.90;;;;;;5085256;28;20123;-77
2021/06/23 09:41:04;;;;;;;11.45;3.50;;;17.40;77.20;;;;;;5080126;28;20032;-76
2021/06/23 09:43:41;;;;;;;11.55;3.22;;;17.40;77.00;;;;;;5092094;28;20047;-76
2021/06/23 09:46:20;;;;;;;16.20;3.45;;;17.30;77.00;;;;;;5083404;28;20032;-77
2021/06/23 09:48:46;;;;;;;;;;;17.30;76.00;;;;;;5098182;28;20103;-76
2021/06/23 09:51:14;;;;;;;9.70;3.63;;;17.30;76.10;;;;;;5066573;28;19909;-77
2021/06/23 09:53:40;;;;;;;11.52;3.30;;;17.20;76.40;;;;;;5066890;28;20035;-76
2021/06/23 09:56:25;;;;;;;11.93;3.10;;;17.30;75.80;;;;;;5066320;28;20033;-77
2021/06/23 09:58:53;;;;;;;14.27;3.40;;;17.30;75.00;;;;;;5070857;28;20056;-77
2021/06/23 10:01:19;;;;;;;8.05;2.67;;;17.40;74.70;;;;;;5063037;28;20104;-76
2021/06/23 10:03:57;;;;;;;10.40;2.70;;;17.40;74.00;;;;;;5063974;28;20124;-76
2021/06/23 10:06:45;;;;;;;10.50;3.38;;;17.40;73.70;;;;;;5067200;28;20477;-76
2021/06/23 10:09:24;;;;;;;14.87;3.27;;;17.40;73.40;;;;;;5066888;28;20033;-76
2021/06/23 10:12:10;;;;;;;15.70;3.63;;;17.40;73.10;;;;;;5077151;28;20426;-76
2021/06/23 10:14:45;;;;;;;12.35;2.95;;;17.40;72.80;;;;;;5069167;28;20032;-76
2021/06/23 10:17:12;;;;;;;9.52;3.47;;;17.40;72.60;;;;;;5076642;28;20036;-77
2021/06/23 10:19:39;;;;;;;9.40;2.90;;;17.40;72.90;;;;;;5059631;28;20032;-76
2021/06/23 10:22:06;;;;;;;12.48;3.15;;;17.30;72.80;;;;;;5067957;28;20028;-76
2021/06/23 10:24:34;;;;;;;11.27;3.10;;;17.40;73.40;;;;;;5067158;28;20441;-76
2021/06/23 10:27:03;;;;;;;9.10;2.95;;;17.50;73.50;;;;;;5070101;28;20021;-75
2021/06/23 10:29:31;;;;;;;9.63;3.47;;;17.60;72.80;;;;;;5090860;28;20120;-75
2021/06/23 10:31:58;;;;;;;10.57;3.28;;;17.70;73.10;;;;;;5079363;28;20063;-75
2021/06/23 10:34:26;;;;;;;9.40;2.83;;;17.70;71.50;;;;;;5070182;28;20028;-75
2021/06/23 10:36:53;;;;;;;8.55;3.25;;;17.80;72.10;;;;;;5064305;28;20036;-75
2021/06/23 10:39:21;;;;;;;13.82;3.33;;;17.80;72.10;;;;;;5069923;28;20154;-75
2021/06/23 10:41:51;;;;;;;15.53;3.47;;;17.90;71.10;;;;;;5067747;28;20111;-75
2021/06/23 10:44:21;;;;;;;14.55;3.30;;;17.90;70.70;;;;;;5067907;28;20467;-75
2021/06/23 10:46:50;;;;;;;10.07;3.55;;;17.90;70.40;;;;;;5068703;28;20028;-75
2021/06/23 10:49:18;;;;;;;13.10;3.20;;;17.90;71.00;;;;;;5073349;28;20025;-76
2021/06/23 10:51:45;;;;;;;10.30;3.72;;;17.90;71.30;;;;;;5075245;28;20028;-76
2021/06/23 10:54:35;;;;;;;12.30;3.75;;;17.90;71.20;;;;;;5059161;28;20083;-76
2021/06/23 10:57:00;;;;;;;16.20;4.57;;;17.90;70.60;;;;;;5066144;28;20043;-76
2021/06/23 10:59:36;;;;;;;15.25;4.43;;;17.90;70.90;;;;;;5065823;28;20095;-76
2021/06/23 11:02:13;;;;;;;12.23;3.47;;;17.80;71.00;;;;;;5095770;28;20485;-75
2021/06/23 11:04:57;;;;;;;8.93;3.88;;;17.80;71.50;;;;;;5070714;28;20029;-76
2021/06/23 11:07:38;;;;;;;14.32;3.50;;;18.00;71.50;;;;;;5068069;28;20074;-76
2021/06/23 11:10:15;;;;;;;13.65;4.07;;;18.10;71.60;;;;;;5088066;28;20021;-75
2021/06/23 11:12:44;;;;;;;11.35;4.03;;;18.10;71.30;;;;;;5096057;28;20110;-76
2021/06/23 11:15:15;;;;;;;14.32;4.47;;;18.10;71.60;;;;;;5075943;28;20028;-75
2021/06/23 11:17:49;;;;;;;12.10;3.53;;;18.20;71.40;;;;;;5071641;28;20021;-75
2021/06/23 11:20:21;;;;;;;9.32;4.28;;;18.30;71.50;;;;;;5072983;28;20024;-73
2021/06/23 11:22:51;;;;;;;10.00;4.07;;;18.30;71.50;;;;;;5065523;28;20131;-73
2021/06/23 11:25:26;;;;;;;12.07;4.10;;;18.30;71.60;;;;;;5064352;28;20020;-73
2021/06/23 11:28:11;;;;;;;10.35;4.05;;;18.30;71.40;;;;;;5066106;28;20036;-74
2021/06/23 11:30:52;;;;;;;15.40;5.22;;;18.30;71.50;;;;;;5086067;28;20031;-73
2021/06/23 11:33:27;;;;;;;16.77;4.53;;;18.30;71.50;;;;;;5064278;28;20359;-74
2021/06/23 11:35:57;;;;;;;16.00;4.82;;;18.30;72.10;;;;;;5056200;28;20079;-74
2021/06/23 11:38:23;;;;;;;10.35;4.20;;;18.20;71.70;;;;;;5062623;28;20074;-74
2021/06/23 11:40:50;;;;;;;8.20;4.03;;;18.30;72.10;;;;;;5074672;28;20032;-73
2021/06/23 11:43:16;;;;;;;15.80;5.20;;;18.30;72.20;;;;;;5071976;28;20505;-74
2021/06/23 11:45:42;;;;;;;17.98;5.05;;;18.40;72.20;;;;;;5075351;28;20056;-74
2021/06/23 11:48:08;;;;;;;14.88;5.10;;;18.50;71.80;;;;;;5065904;28;20469;-74
2021/06/23 11:50:34;;;;;;;8.50;4.35;;;18.60;71.70;;;;;;5081618;28;20025;-74
2021/06/23 11:53:01;;;;;;;8.98;4.43;;;18.50;71.40;;;;;;5066125;28;20069;-74
2021/06/23 11:55:27;;;;;;;13.23;5.05;;;18.60;71.70;;;;;;5076593;28;20021;-72
2021/06/23 11:57:58;;;;;;;14.85;5.47;;;18.70;70.90;;;;;;5073840;28;20040;-74
2021/06/23 12:00:25;;;;;;;14.13;5.90;;;18.70;71.60;;;;;;5063536;28;20037;-73
2021/06/23 12:02:51;;;;;;;14.60;5.93;;;18.80;71.80;;;;;;5068774;28;20446;-73
2021/06/23 12:05:18;;;;;;;15.07;5.93;;;18.80;70.90;;;;;;5064396;28;20155;-73
2021/06/23 12:07:43;;;;;;;10.90;5.03;;;18.80;70.20;;;;;;5066036;28;20055;-73
2021/06/23 12:10:10;;;;;;;15.68;5.50;;;18.90;70.60;;;;;;5062864;28;20048;-72
2021/06/23 12:12:36;;;;;;;17.35;5.43;;;18.90;70.90;;;;;;5060706;28;20040;-73
2021/06/23 12:15:05;;;;;;;14.15;5.25;;;19.00;70.90;;;;;;5067755;28;20033;-73
2021/06/23 12:17:30;;;;;;;13.75;4.93;;;18.90;70.50;;;;;;5069131;28;20442;-72
2021/06/23 12:19:56;;;;;;;14.13;5.45;;;18.90;70.80;;;;;;5077782;28;20071;-73
2021/06/23 12:22:25;;;;;;;12.82;5.30;;;18.90;70.90;;;;;;5089902;28;20500;-74
2021/06/23 12:24:51;;;;;;;;;;;18.90;70.20;;;;;;5079062;28;20025;-73
2021/06/23 12:27:16;;;;;;;16.48;6.00;;;18.90;69.90;;;;;;5075548;28;19912;-73
2021/06/23 12:29:42;;;;;;;12.10;5.70;;;18.80;70.20;;;;;;5062070;28;20032;-73
2021/06/23 12:32:08;;;;;;;14.95;5.40;;;18.70;69.80;;;;;;5071267;28;20032;-73
2021/06/23 12:34:33;;;;;;;15.07;5.55;;;18.70;70.90;;;;;;5069610;28;20073;-74
2021/06/23 12:36:59;;;;;;;13.40;5.47;;;18.70;71.20;;;;;;5092809;28;20040;-73
2021/06/23 12:39:25;;;;;;;11.35;5.28;;;18.80;71.40;;;;;;5066382;28;20113;-73
2021/06/23 12:41:51;;;;;;;12.63;5.88;;;19.00;71.50;;;;;;5071367;28;20045;-74
2021/06/23 12:44:18;;;;;;;14.63;5.75;;;19.10;70.50;;;;;;5074007;28;20025;-73
2021/06/23 12:46:43;;;;;;;15.90;5.57;;;19.20;70.20;;;;;;5070989;28;20029;-74
2021/06/23 12:49:10;;;;;;;9.85;4.90;;;19.30;70.60;;;;;;5069153;28;20035;-74
2021/06/23 12:51:35;;;;;;;9.90;5.00;;;19.40;70.40;;;;;;5054653;28;20112;-75
2021/06/23 12:54:01;;;;;;;17.58;5.57;;;19.50;70.00;;;;;;5073807;28;20107;-74
2021/06/23 12:56:27;;;;;;;15.63;5.90;;;19.40;68.70;;;;;;5076714;28;20074;-74